Main page
Satellite images 15-day forecastsClimateMarine weather Cyclones Lightning AirportsFAQ Newsletter About
Weather : Europe Africa North America South America Asia Australia-Oceania Others
Languages Contact

Çorlu, Turkey

latitude: 41-08N, longitude: 027-55E, elevation: 173 m


METAR: LTBU 252020Z 01010KT CAVOK 22/20 Q1011
short-TAF: out of date (33540 hours)
long-TAF: LTBU 251640Z 2518/2618 01009KT 9999 SCT033 BECMG 2518/2522 CAVOK BECMG 2522/2602 SCT033

Time: 23:34 (20:34 UTC)

Current weather observation

The report was made 14 minutes ago, at 20:20 UTC  
Wind 10 kt from the North
Temperature 22°C
Humidity 88%
Pressure 1011 hPa
Visibility 10 km or more
no clouds below 1500 m and no cumulonimbus

Change units

Forecast

The report was made 3 hours and 31 minutes ago, at 17:03 UTC  
Forecast valid from 25 at 18 UTC to 26 at 18 UTC
Wind 09 kt from the North
Visibility 10 km or more
Scattered clouds at a height of 3300 ft
Becoming
from 25 at 18 UTC to 25 at 22 UTC
Visibility 10 km or more
no clouds below 1500 m and no cumulonimbus
Becoming
from 25 at 22 UTC to 26 at 02 UTC
Scattered clouds at a height of 3300 ft
The information on this site is subject to a disclaimer
Weather : Europe Africa North America South America Asia Australia-Oceania Others
Satellite images 15-day forecastsClimateMarine weather Cyclones Lightning AirportsFAQ Languages Contact Newsletter About